sensor_id;sensor_type;location;lat;lon;timestamp;pressure;altitude;pressure_sealevel;temperature;humidity
80401;BME280;69727;53.132;8.230;2023-06-24T00:01:24;102415.03;;;29.28;34.66
80401;BME280;69727;53.132;8.230;2023-06-24T00:03:49;102417.00;;;29.26;35.01
80401;BME280;69727;53.132;8.230;2023-06-24T00:06:18;102413.31;;;29.14;35.57
80401;BME280;69727;53.132;8.230;2023-06-24T00:08:48;102408.81;;;29.13;35.11
80401;BME280;69727;53.132;8.230;2023-06-24T00:11:14;102416.38;;;29.09;35.25
80401;BME280;69727;53.132;8.230;2023-06-24T00:13:40;102415.59;;;29.07;35.63
80401;BME280;69727;53.132;8.230;2023-06-24T00:16:06;102407.00;;;29.01;35.60
80401;BME280;69727;53.132;8.230;2023-06-24T00:18:32;102413.41;;;29.00;35.41
80401;BME280;69727;53.132;8.230;2023-06-24T00:20:58;102415.50;;;28.96;35.68
80401;BME280;69727;53.132;8.230;2023-06-24T00:23:23;102412.91;;;28.94;35.89
80401;BME280;69727;53.132;8.230;2023-06-24T00:25:52;102427.72;;;28.90;35.99
80401;BME280;69727;53.132;8.230;2023-06-24T00:28:18;102424.56;;;28.84;36.30
80401;BME280;69727;53.132;8.230;2023-06-24T00:30:43;102425.53;;;28.96;35.66
80401;BME280;69727;53.132;8.230;2023-06-24T00:33:09;102416.03;;;29.01;35.79
80401;BME280;69727;53.132;8.230;2023-06-24T00:35:37;102406.88;;;29.02;35.77
80401;BME280;69727;53.132;8.230;2023-06-24T00:38:03;102407.34;;;28.96;35.72
80401;BME280;69727;53.132;8.230;2023-06-24T00:40:28;102413.66;;;28.97;35.81
80401;BME280;69727;53.132;8.230;2023-06-24T00:42:54;102414.22;;;28.89;35.85
80401;BME280;69727;53.132;8.230;2023-06-24T00:45:24;102418.34;;;28.82;36.07
80401;BME280;69727;53.132;8.230;2023-06-24T00:47:50;102411.06;;;28.82;35.70
80401;BME280;69727;53.132;8.230;2023-06-24T00:50:17;102411.16;;;28.81;35.79
80401;BME280;69727;53.132;8.230;2023-06-24T00:52:42;102409.44;;;28.80;35.94
80401;BME280;69727;53.132;8.230;2023-06-24T00:55:12;102410.94;;;28.84;35.83
80401;BME280;69727;53.132;8.230;2023-06-24T00:57:43;102416.94;;;28.76;35.83
80401;BME280;69727;53.132;8.230;2023-06-24T01:00:09;102416.19;;;28.74;35.61
80401;BME280;69727;53.132;8.230;2023-06-24T01:02:38;102417.25;;;28.71;35.55
80401;BME280;69727;53.132;8.230;2023-06-24T01:05:04;102408.34;;;28.69;35.87
80401;BME280;69727;53.132;8.230;2023-06-24T01:07:33;102412.16;;;28.67;35.76
80401;BME280;69727;53.132;8.230;2023-06-24T01:10:02;102420.97;;;28.57;35.88
80401;BME280;69727;53.132;8.230;2023-06-24T01:12:27;102423.13;;;28.52;35.63
80401;BME280;69727;53.132;8.230;2023-06-24T01:14:53;102420.94;;;28.45;35.85
80401;BME280;69727;53.132;8.230;2023-06-24T01:17:39;102419.00;;;28.47;36.07
80401;BME280;69727;53.132;8.230;2023-06-24T01:20:11;102417.34;;;28.44;36.37
80401;BME280;69727;53.132;8.230;2023-06-24T01:31:23;102409.19;;;28.31;36.25
80401;BME280;69727;53.132;8.230;2023-06-24T01:34:02;102401.13;;;28.30;36.37
80401;BME280;69727;53.132;8.230;2023-06-24T01:36:33;102407.00;;;28.23;36.41
80401;BME280;69727;53.132;8.230;2023-06-24T01:39:04;102399.91;;;28.21;36.76
80401;BME280;69727;53.132;8.230;2023-06-24T01:41:35;102403.31;;;28.25;36.64
80401;BME280;69727;53.132;8.230;2023-06-24T01:44:05;102403.31;;;28.25;36.53
80401;BME280;69727;53.132;8.230;2023-06-24T01:46:31;102403.53;;;28.21;36.78
80401;BME280;69727;53.132;8.230;2023-06-24T01:49:01;102405.47;;;28.19;36.53
80401;BME280;69727;53.132;8.230;2023-06-24T01:51:31;102406.47;;;28.18;36.50
80401;BME280;69727;53.132;8.230;2023-06-24T01:54:02;102402.09;;;28.16;36.68
80401;BME280;69727;53.132;8.230;2023-06-24T01:56:28;102396.66;;;28.16;36.63
80401;BME280;69727;53.132;8.230;2023-06-24T01:58:55;102395.00;;;28.13;36.79
80401;BME280;69727;53.132;8.230;2023-06-24T02:01:23;102397.63;;;28.15;36.39
80401;BME280;69727;53.132;8.230;2023-06-24T02:03:50;102401.44;;;28.12;36.40
80401;BME280;69727;53.132;8.230;2023-06-24T02:06:19;102411.31;;;28.13;36.64
80401;BME280;69727;53.132;8.230;2023-06-24T02:08:48;102397.97;;;28.23;36.62
80401;BME280;69727;53.132;8.230;2023-06-24T02:11:14;102405.03;;;28.13;36.91
80401;BME280;69727;53.132;8.230;2023-06-24T02:13:42;102403.59;;;28.07;37.09
80401;BME280;69727;53.132;8.230;2023-06-24T02:16:08;102393.72;;;28.06;37.16
80401;BME280;69727;53.132;8.230;2023-06-24T02:18:37;102406.31;;;28.07;37.12
80401;BME280;69727;53.132;8.230;2023-06-24T02:21:04;102399.81;;;28.10;36.98
80401;BME280;69727;53.132;8.230;2023-06-24T02:23:31;102395.31;;;28.09;36.80
80401;BME280;69727;53.132;8.230;2023-06-24T02:25:57;102395.31;;;28.09;37.00
80401;BME280;69727;53.132;8.230;2023-06-24T02:28:23;102393.13;;;28.01;37.41
80401;BME280;69727;53.132;8.230;2023-06-24T02:30:50;102405.22;;;27.97;37.62
80401;BME280;69727;53.132;8.230;2023-06-24T02:33:16;102410.66;;;27.97;37.30
80401;BME280;69727;53.132;8.230;2023-06-24T02:35:41;102407.94;;;27.97;37.26
80401;BME280;69727;53.132;8.230;2023-06-24T02:38:07;102407.19;;;27.95;37.11
80401;BME280;69727;53.132;8.230;2023-06-24T02:40:33;102405.81;;;27.87;37.44
80401;BME280;69727;53.132;8.230;2023-06-24T02:42:59;102417.09;;;27.81;37.46
80401;BME280;69727;53.132;8.230;2023-06-24T02:45:25;102402.66;;;27.81;37.65
80401;BME280;69727;53.132;8.230;2023-06-24T02:47:52;102407.97;;;27.82;37.31
80401;BME280;69727;53.132;8.230;2023-06-24T02:50:18;102403.72;;;27.78;37.73
80401;BME280;69727;53.132;8.230;2023-06-24T02:52:45;102405.66;;;27.76;37.51
80401;BME280;69727;53.132;8.230;2023-06-24T02:55:11;102403.25;;;27.72;37.66
80401;BME280;69727;53.132;8.230;2023-06-24T02:57:37;102407.06;;;27.69;37.76
80401;BME280;69727;53.132;8.230;2023-06-24T03:00:04;102409.47;;;27.74;37.26
80401;BME280;69727;53.132;8.230;2023-06-24T03:02:38;102411.88;;;27.78;37.28
80401;BME280;69727;53.132;8.230;2023-06-24T03:05:05;102412.47;;;27.69;37.40
80401;BME280;69727;53.132;8.230;2023-06-24T03:07:31;102411.94;;;27.64;37.75
80401;BME280;69727;53.132;8.230;2023-06-24T03:10:01;102413.56;;;27.66;37.63
80401;BME280;69727;53.132;8.230;2023-06-24T03:12:28;102415.41;;;27.66;37.23
80401;BME280;69727;53.132;8.230;2023-06-24T03:14:54;102417.06;;;27.68;38.00
80401;BME280;69727;53.132;8.230;2023-06-24T03:17:19;102424.91;;;27.73;37.29
80401;BME280;69727;53.132;8.230;2023-06-24T03:19:44;102429.53;;;27.71;37.41
80401;BME280;69727;53.132;8.230;2023-06-24T03:22:10;102435.97;;;27.70;37.48
80401;BME280;69727;53.132;8.230;2023-06-24T03:24:35;102434.31;;;27.67;37.65
80401;BME280;69727;53.132;8.230;2023-06-24T03:27:00;102443.25;;;27.69;37.47
80401;BME280;69727;53.132;8.230;2023-06-24T03:29:26;102441.31;;;27.72;37.39
80401;BME280;69727;53.132;8.230;2023-06-24T03:31:51;102452.28;;;27.70;37.42
80401;BME280;69727;53.132;8.230;2023-06-24T03:34:17;102452.28;;;27.70;37.81
80401;BME280;69727;53.132;8.230;2023-06-24T03:36:43;102454.91;;;27.72;37.49
80401;BME280;69727;53.132;8.230;2023-06-24T03:39:08;102458.97;;;27.64;37.75
80401;BME280;69727;53.132;8.230;2023-06-24T03:41:33;102455.97;;;27.69;37.30
80401;BME280;69727;53.132;8.230;2023-06-24T03:43:59;102466.47;;;27.61;37.89
80401;BME280;69727;53.132;8.230;2023-06-24T03:46:25;102460.28;;;27.59;38.05
80401;BME280;69727;53.132;8.230;2023-06-24T03:48:51;102452.91;;;27.61;37.99
80401;BME280;69727;53.132;8.230;2023-06-24T03:51:16;102461.03;;;27.61;38.07
80401;BME280;69727;53.132;8.230;2023-06-24T03:53:42;102453.84;;;27.60;38.15
80401;BME280;69727;53.132;8.230;2023-06-24T03:56:07;102452.13;;;27.59;38.17
80401;BME280;69727;53.132;8.230;2023-06-24T03:58:32;102445.81;;;27.58;38.14
80401;BME280;69727;53.132;8.230;2023-06-24T04:00:59;102458.84;;;27.53;38.25
80401;BME280;69727;53.132;8.230;2023-06-24T04:03:25;102452.84;;;27.48;38.18
80401;BME280;69727;53.132;8.230;2023-06-24T04:05:53;102448.47;;;27.45;38.32
80401;BME280;69727;53.132;8.230;2023-06-24T04:08:18;102456.97;;;27.54;38.25
80401;BME280;69727;53.132;8.230;2023-06-24T04:10:44;102453.84;;;27.60;38.11
80401;BME280;69727;53.132;8.230;2023-06-24T04:13:09;102455.59;;;27.61;38.21
80401;BME280;69727;53.132;8.230;2023-06-24T04:15:35;102458.69;;;27.69;38.44
80401;BME280;69727;53.132;8.230;2023-06-24T04:18:00;102445.13;;;27.82;38.29
80401;BME280;69727;53.132;8.230;2023-06-24T04:20:25;102444.16;;;27.83;38.26
80401;BME280;69727;53.132;8.230;2023-06-24T04:22:51;102444.16;;;27.83;38.22
80401;BME280;69727;53.132;8.230;2023-06-24T04:25:16;102452.31;;;27.83;38.37
80401;BME280;69727;53.132;8.230;2023-06-24T04:27:42;102460.06;;;27.89;37.99
80401;BME280;69727;53.132;8.230;2023-06-24T04:30:07;102459.59;;;27.97;38.04
80401;BME280;69727;53.132;8.230;2023-06-24T04:32:33;102453.44;;;28.08;37.74
80401;BME280;69727;53.132;8.230;2023-06-24T04:34:58;102451.69;;;28.19;37.69
80401;BME280;69727;53.132;8.230;2023-06-24T04:37:25;102447.91;;;28.22;37.58
80401;BME280;69727;53.132;8.230;2023-06-24T04:39:51;102444.75;;;28.28;37.84
80401;BME280;69727;53.132;8.230;2023-06-24T04:42:16;102440.63;;;28.35;37.59
80401;BME280;69727;53.132;8.230;2023-06-24T04:44:42;102439.56;;;28.38;37.61
80401;BME280;69727;53.132;8.230;2023-06-24T04:47:07;102443.59;;;28.45;37.33
80401;BME280;69727;53.132;8.230;2023-06-24T04:49:32;102434.44;;;28.46;37.71
80401;BME280;69727;53.132;8.230;2023-06-24T04:52:02;102437.63;;;28.53;37.30
80401;BME280;69727;53.132;8.230;2023-06-24T04:54:27;102441.09;;;28.55;37.73
80401;BME280;69727;53.132;8.230;2023-06-24T04:56:53;102440.47;;;28.64;36.78
80401;BME280;69727;53.132;8.230;2023-06-24T04:59:23;102435.34;;;28.72;37.31
80401;BME280;69727;53.132;8.230;2023-06-24T05:01:49;102439.38;;;28.80;36.81
80401;BME280;69727;53.132;8.230;2023-06-24T05:04:14;102432.50;;;28.87;37.03
80401;BME280;69727;53.132;8.230;2023-06-24T05:06:39;102439.25;;;28.94;36.79
80401;BME280;69727;53.132;8.230;2023-06-24T05:09:05;102444.47;;;29.10;36.60
80401;BME280;69727;53.132;8.230;2023-06-24T05:11:30;102447.19;;;29.23;36.52
80401;BME280;69727;53.132;8.230;2023-06-24T05:13:56;102458.03;;;29.36;36.35
80401;BME280;69727;53.132;8.230;2023-06-24T05:16:21;102449.41;;;29.42;35.88
80401;BME280;69727;53.132;8.230;2023-06-24T05:18:49;102449.41;;;29.55;36.17
80401;BME280;69727;53.132;8.230;2023-06-24T05:21:14;102458.59;;;29.65;35.69
80401;BME280;69727;53.132;8.230;2023-06-24T05:23:39;102463.47;;;29.73;35.76
80401;BME280;69727;53.132;8.230;2023-06-24T05:26:05;102453.09;;;29.78;35.46
80401;BME280;69727;53.132;8.230;2023-06-24T05:28:30;102453.31;;;29.88;35.54
80401;BME280;69727;53.132;8.230;2023-06-24T05:30:56;102451.00;;;29.94;35.58
80401;BME280;69727;53.132;8.230;2023-06-24T05:33:22;102450.50;;;30.00;35.00
80401;BME280;69727;53.132;8.230;2023-06-24T05:35:47;102447.81;;;30.12;34.90
80401;BME280;69727;53.132;8.230;2023-06-24T05:38:13;102443.66;;;30.19;34.88
80401;BME280;69727;53.132;8.230;2023-06-24T05:40:38;102445.66;;;30.28;34.96
80401;BME280;69727;53.132;8.230;2023-06-24T05:43:03;102442.16;;;30.26;34.87
80401;BME280;69727;53.132;8.230;2023-06-24T05:45:29;102422.81;;;30.29;34.36
80401;BME280;69727;53.132;8.230;2023-06-24T05:47:54;102423.53;;;30.44;34.08
80401;BME280;69727;53.132;8.230;2023-06-24T05:50:19;102421.03;;;30.41;33.83
80401;BME280;69727;53.132;8.230;2023-06-24T05:52:45;102419.41;;;30.50;34.56
80401;BME280;69727;53.132;8.230;2023-06-24T05:55:10;102425.28;;;30.57;33.79
80401;BME280;69727;53.132;8.230;2023-06-24T05:57:39;102433.34;;;30.81;33.80
80401;BME280;69727;53.132;8.230;2023-06-24T06:00:04;102432.38;;;30.82;32.97
80401;BME280;69727;53.132;8.230;2023-06-24T06:02:30;102434.47;;;30.89;33.26
80401;BME280;69727;53.132;8.230;2023-06-24T06:04:55;102451.63;;;31.03;32.72
80401;BME280;69727;53.132;8.230;2023-06-24T06:07:21;102451.38;;;31.17;32.64
80401;BME280;69727;53.132;8.230;2023-06-24T06:09:46;102450.22;;;31.31;32.69
80401;BME280;69727;53.132;8.230;2023-06-24T06:12:11;102452.69;;;31.45;32.14
80401;BME280;69727;53.132;8.230;2023-06-24T06:14:37;102453.31;;;31.60;32.02
80401;BME280;69727;53.132;8.230;2023-06-24T06:17:02;102463.56;;;31.79;31.95
80401;BME280;69727;53.132;8.230;2023-06-24T06:19:28;102463.06;;;31.86;31.64
80401;BME280;69727;53.132;8.230;2023-06-24T06:21:53;102458.75;;;32.04;31.60
80401;BME280;69727;53.132;8.230;2023-06-24T06:24:18;102468.41;;;32.20;30.82
80401;BME280;69727;53.132;8.230;2023-06-24T06:26:44;102474.88;;;32.19;30.49
80401;BME280;69727;53.132;8.230;2023-06-24T06:29:10;102474.75;;;32.20;30.86
80401;BME280;69727;53.132;8.230;2023-06-24T06:31:36;102474.16;;;32.38;30.36
80401;BME280;69727;53.132;8.230;2023-06-24T06:34:02;102473.94;;;32.50;30.18
80401;BME280;69727;53.132;8.230;2023-06-24T06:36:28;102463.34;;;32.57;30.17
80401;BME280;69727;53.132;8.230;2023-06-24T06:38:53;102471.81;;;32.75;29.83
80401;BME280;69727;53.132;8.230;2023-06-24T06:41:18;102467.81;;;32.79;29.68
80401;BME280;69727;53.132;8.230;2023-06-24T06:43:52;102464.84;;;32.92;29.21
80401;BME280;69727;53.132;8.230;2023-06-24T06:46:18;102466.91;;;33.00;29.42
80401;BME280;69727;53.132;8.230;2023-06-24T06:48:43;102466.66;;;33.13;28.47
80401;BME280;69727;53.132;8.230;2023-06-24T06:51:09;102462.31;;;33.10;27.99
80401;BME280;69727;53.132;8.230;2023-06-24T06:53:34;102464.78;;;33.13;27.33
80401;BME280;69727;53.132;8.230;2023-06-24T06:56:00;102463.06;;;33.12;26.35
80401;BME280;69727;53.132;8.230;2023-06-24T06:58:25;102452.88;;;33.34;27.31
80401;BME280;69727;53.132;8.230;2023-06-24T07:00:50;102463.06;;;33.53;27.77
80401;BME280;69727;53.132;8.230;2023-06-24T07:03:16;102457.16;;;33.67;27.56
80401;BME280;69727;53.132;8.230;2023-06-24T07:05:41;102459.78;;;33.79;26.97
80401;BME280;69727;53.132;8.230;2023-06-24T07:08:07;102467.72;;;33.91;26.43
80401;BME280;69727;53.132;8.230;2023-06-24T07:10:32;102463.38;;;34.47;25.85
80401;BME280;69727;53.132;8.230;2023-06-24T07:12:58;102465.88;;;35.26;24.43
80401;BME280;69727;53.132;8.230;2023-06-24T07:15:25;102465.31;;;36.40;22.90
80401;BME280;69727;53.132;8.230;2023-06-24T07:17:51;102453.94;;;37.30;22.09
80401;BME280;69727;53.132;8.230;2023-06-24T07:20:16;102464.19;;;37.62;21.37
80401;BME280;69727;53.132;8.230;2023-06-24T07:22:42;102464.44;;;37.94;20.87
80401;BME280;69727;53.132;8.230;2023-06-24T07:25:07;102457.00;;;38.35;20.58
80401;BME280;69727;53.132;8.230;2023-06-24T07:27:32;102457.31;;;38.57;20.09
80401;BME280;69727;53.132;8.230;2023-06-24T07:29:58;102468.25;;;39.06;19.64
80401;BME280;69727;53.132;8.230;2023-06-24T07:32:23;102468.38;;;39.21;18.64
80401;BME280;69727;53.132;8.230;2023-06-24T07:34:49;102461.16;;;39.04;18.60
80401;BME280;69727;53.132;8.230;2023-06-24T07:37:14;102463.13;;;38.87;19.27
80401;BME280;69727;53.132;8.230;2023-06-24T07:39:39;102461.63;;;38.60;19.94
80401;BME280;69727;53.132;8.230;2023-06-24T07:42:05;102467.22;;;38.35;20.57
80401;BME280;69727;53.132;8.230;2023-06-24T07:44:30;102467.41;;;38.17;20.88
80401;BME280;69727;53.132;8.230;2023-06-24T07:46:56;102472.38;;;37.97;20.35
80401;BME280;69727;53.132;8.230;2023-06-24T07:49:21;102477.09;;;37.54;20.84
80401;BME280;69727;53.132;8.230;2023-06-24T07:51:46;102471.50;;;36.94;21.37
80401;BME280;69727;53.132;8.230;2023-06-24T07:54:12;102472.03;;;36.64;21.63
80401;BME280;69727;53.132;8.230;2023-06-24T07:56:37;102473.50;;;36.32;22.11
80401;BME280;69727;53.132;8.230;2023-06-24T07:59:03;102479.13;;;36.04;22.34
80401;BME280;69727;53.132;8.230;2023-06-24T08:01:28;102478.16;;;35.95;22.24
80401;BME280;69727;53.132;8.230;2023-06-24T08:03:53;102475.16;;;36.06;22.52
80401;BME280;69727;53.132;8.230;2023-06-24T08:06:19;102469.66;;;36.06;22.24
80401;BME280;69727;53.132;8.230;2023-06-24T08:08:45;102465.44;;;35.76;22.62
80401;BME280;69727;53.132;8.230;2023-06-24T08:11:12;102469.53;;;35.90;22.65
80401;BME280;69727;53.132;8.230;2023-06-24T08:13:37;102466.38;;;36.03;22.59
80401;BME280;69727;53.132;8.230;2023-06-24T08:16:02;102467.00;;;35.97;22.52
80401;BME280;69727;53.132;8.230;2023-06-24T08:18:28;102466.94;;;35.88;22.29
80401;BME280;69727;53.132;8.230;2023-06-24T08:20:53;102465.50;;;35.84;22.20
80401;BME280;69727;53.132;8.230;2023-06-24T08:23:19;102459.69;;;36.05;22.80
80401;BME280;69727;53.132;8.230;2023-06-24T08:25:44;102459.28;;;36.18;22.29
80401;BME280;69727;53.132;8.230;2023-06-24T08:28:10;102450.94;;;36.10;22.59
80401;BME280;69727;53.132;8.230;2023-06-24T08:30:36;102451.00;;;36.36;22.09
80401;BME280;69727;53.132;8.230;2023-06-24T08:33:01;102451.72;;;36.38;22.16
80401;BME280;69727;53.132;8.230;2023-06-24T08:35:27;102453.53;;;36.56;22.80
80401;BME280;69727;53.132;8.230;2023-06-24T08:37:52;102449.00;;;36.47;21.75
80401;BME280;69727;53.132;8.230;2023-06-24T08:40:17;102450.31;;;36.60;22.09
80401;BME280;69727;53.132;8.230;2023-06-24T08:42:43;102453.41;;;36.66;22.03
80401;BME280;69727;53.132;8.230;2023-06-24T08:45:09;102452.53;;;36.91;22.08
80401;BME280;69727;53.132;8.230;2023-06-24T08:47:35;102449.06;;;36.81;22.17
80401;BME280;69727;53.132;8.230;2023-06-24T08:50:11;102444.06;;;36.85;21.60
80401;BME280;69727;53.132;8.230;2023-06-24T08:52:38;102450.56;;;36.75;21.39
80401;BME280;69727;53.132;8.230;2023-06-24T08:55:04;102448.22;;;36.81;22.13
80401;BME280;69727;53.132;8.230;2023-06-24T08:57:31;102443.25;;;36.92;21.62
80401;BME280;69727;53.132;8.230;2023-06-24T08:59:56;102437.56;;;36.94;21.10
80401;BME280;69727;53.132;8.230;2023-06-24T09:02:22;102430.75;;;37.14;21.39
80401;BME280;69727;53.132;8.230;2023-06-24T09:04:47;102443.75;;;37.30;21.76
80401;BME280;69727;53.132;8.230;2023-06-24T09:07:26;102434.31;;;37.33;21.47
80401;BME280;69727;53.132;8.230;2023-06-24T09:09:53;102441.22;;;37.37;20.73
80401;BME280;69727;53.132;8.230;2023-06-24T09:12:18;102433.78;;;37.38;21.23
80401;BME280;69727;53.132;8.230;2023-06-24T09:14:50;102432.09;;;37.53;20.67
80401;BME280;69727;53.132;8.230;2023-06-24T09:17:16;102436.03;;;37.42;21.11
80401;BME280;69727;53.132;8.230;2023-06-24T09:19:42;102430.28;;;37.70;20.85
80401;BME280;69727;53.132;8.230;2023-06-24T09:22:09;102427.78;;;37.59;21.48
80401;BME280;69727;53.132;8.230;2023-06-24T09:24:41;102427.94;;;37.57;21.18
80401;BME280;69727;53.132;8.230;2023-06-24T09:27:07;102427.59;;;37.52;20.97
80401;BME280;69727;53.132;8.230;2023-06-24T09:29:35;102430.72;;;37.57;20.80
80401;BME280;69727;53.132;8.230;2023-06-24T09:32:05;102421.56;;;37.40;21.17
80401;BME280;69727;53.132;8.230;2023-06-24T09:34:30;102421.56;;;37.48;21.18
80401;BME280;69727;53.132;8.230;2023-06-24T09:36:57;102412.97;;;37.51;21.03
80401;BME280;69727;53.132;8.230;2023-06-24T09:39:23;102406.63;;;37.76;20.67
80401;BME280;69727;53.132;8.230;2023-06-24T09:41:59;102411.97;;;37.94;20.68
80401;BME280;69727;53.132;8.230;2023-06-24T09:44:27;102412.69;;;38.20;20.12
80401;BME280;69727;53.132;8.230;2023-06-24T09:46:52;102405.03;;;38.31;19.98
80401;BME280;69727;53.132;8.230;2023-06-24T09:49:18;102407.56;;;38.57;20.56
80401;BME280;69727;53.132;8.230;2023-06-24T09:51:49;102398.00;;;38.28;20.43
80401;BME280;69727;53.132;8.230;2023-06-24T09:54:16;102404.03;;;38.24;20.28
80401;BME280;69727;53.132;8.230;2023-06-24T09:56:52;102398.75;;;38.62;20.29
80401;BME280;69727;53.132;8.230;2023-06-24T09:59:19;102404.94;;;38.80;19.91
80401;BME280;69727;53.132;8.230;2023-06-24T10:01:49;102405.91;;;38.87;19.48
80401;BME280;69727;53.132;8.230;2023-06-24T10:04:18;102400.38;;;38.96;19.65
80401;BME280;69727;53.132;8.230;2023-06-24T10:06:44;102401.63;;;39.47;19.63
80401;BME280;69727;53.132;8.230;2023-06-24T10:09:10;102392.50;;;39.47;19.36
80401;BME280;69727;53.132;8.230;2023-06-24T10:11:38;102390.41;;;39.72;19.30
80401;BME280;69727;53.132;8.230;2023-06-24T10:14:04;102391.19;;;39.58;18.90
80401;BME280;69727;53.132;8.230;2023-06-24T10:16:29;102379.00;;;39.90;18.95
80401;BME280;69727;53.132;8.230;2023-06-24T10:19:02;102386.06;;;40.31;18.88
80401;BME280;69727;53.132;8.230;2023-06-24T10:21:49;102373.38;;;40.51;18.45
80401;BME280;69727;53.132;8.230;2023-06-24T10:24:34;102374.78;;;40.77;17.91
80401;BME280;69727;53.132;8.230;2023-06-24T10:32:08;102367.25;;;40.41;17.80
80401;BME280;69727;53.132;8.230;2023-06-24T10:42:41;102356.72;;;40.36;17.48
80401;BME280;69727;53.132;8.230;2023-06-24T10:47:46;102358.81;;;41.31;17.60
80401;BME280;69727;53.132;8.230;2023-06-24T10:50:14;102368.09;;;41.23;16.91
80401;BME280;69727;53.132;8.230;2023-06-24T10:52:43;102361.56;;;40.94;16.83
80401;BME280;69727;53.132;8.230;2023-06-24T10:55:09;102365.34;;;41.08;16.37
80401;BME280;69727;53.132;8.230;2023-06-24T10:57:34;102364.34;;;40.94;17.25
80401;BME280;69727;53.132;8.230;2023-06-24T11:00:01;102362.66;;;40.93;16.75
80401;BME280;69727;53.132;8.230;2023-06-24T11:02:27;102348.47;;;41.24;16.94
80401;BME280;69727;53.132;8.230;2023-06-24T11:04:55;102352.53;;;41.43;17.17
80401;BME280;69727;53.132;8.230;2023-06-24T11:07:24;102350.88;;;41.99;16.57
80401;BME280;69727;53.132;8.230;2023-06-24T11:10:24;102343.25;;;42.08;16.55
80401;BME280;69727;53.132;8.230;2023-06-24T11:12:42;102344.78;;;42.10;16.69
80401;BME280;69727;53.132;8.230;2023-06-24T11:15:10;102349.31;;;42.18;16.42
80401;BME280;69727;53.132;8.230;2023-06-24T11:17:37;102341.16;;;42.52;15.75
80401;BME280;69727;53.132;8.230;2023-06-24T11:20:07;102350.31;;;41.82;16.43
80401;BME280;69727;53.132;8.230;2023-06-24T11:22:33;102345.06;;;41.94;16.63
80401;BME280;69727;53.132;8.230;2023-06-24T11:24:59;102335.94;;;42.35;16.69
80401;BME280;69727;53.132;8.230;2023-06-24T11:27:26;102339.69;;;42.56;16.27
80401;BME280;69727;53.132;8.230;2023-06-24T11:29:53;102339.16;;;42.74;15.85
80401;BME280;69727;53.132;8.230;2023-06-24T11:32:19;102343.84;;;42.03;16.47
80401;BME280;69727;53.132;8.230;2023-06-24T11:34:44;102337.09;;;41.84;16.67
80401;BME280;69727;53.132;8.230;2023-06-24T11:37:17;102337.97;;;41.20;16.95
80401;BME280;69727;53.132;8.230;2023-06-24T11:39:44;102337.31;;;41.39;17.18
80401;BME280;69727;53.132;8.230;2023-06-24T11:42:10;102326.94;;;41.98;16.57
80401;BME280;69727;53.132;8.230;2023-06-24T11:44:41;102334.41;;;42.61;16.39
80401;BME280;69727;53.132;8.230;2023-06-24T11:47:10;102328.13;;;43.07;15.43
80401;BME280;69727;53.132;8.230;2023-06-24T11:49:52;102331.03;;;42.85;16.27
80401;BME280;69727;53.132;8.230;2023-06-24T11:52:19;102322.31;;;42.47;15.49
80401;BME280;69727;53.132;8.230;2023-06-24T11:54:44;102322.59;;;42.17;15.79
80401;BME280;69727;53.132;8.230;2023-06-24T11:57:10;102318.53;;;42.20;16.62
80401;BME280;69727;53.132;8.230;2023-06-24T11:59:38;102322.59;;;42.17;16.42
80401;BME280;69727;53.132;8.230;2023-06-24T12:02:03;102322.06;;;42.83;15.99
80401;BME280;69727;53.132;8.230;2023-06-24T12:04:30;102316.63;;;43.24;15.54
80401;BME280;69727;53.132;8.230;2023-06-24T12:06:57;102312.31;;;43.28;15.25
80401;BME280;69727;53.132;8.230;2023-06-24T12:09:23;102324.00;;;42.90;15.85
80401;BME280;69727;53.132;8.230;2023-06-24T12:11:49;102318.16;;;42.71;16.16
80401;BME280;69727;53.132;8.230;2023-06-24T12:14:14;102313.06;;;41.98;16.34
80401;BME280;69727;53.132;8.230;2023-06-24T12:16:40;102319.75;;;41.82;16.82
80401;BME280;69727;53.132;8.230;2023-06-24T12:19:09;102314.47;;;41.37;16.35
80401;BME280;69727;53.132;8.230;2023-06-24T12:21:35;102314.84;;;41.56;16.78
80401;BME280;69727;53.132;8.230;2023-06-24T12:24:01;102306.16;;;42.22;15.97
80401;BME280;69727;53.132;8.230;2023-06-24T12:26:26;102322.56;;;43.00;15.37
80401;BME280;69727;53.132;8.230;2023-06-24T12:28:55;102315.31;;;43.19;15.35
80401;BME280;69727;53.132;8.230;2023-06-24T12:31:25;102323.88;;;43.11;15.09
80401;BME280;69727;53.132;8.230;2023-06-24T12:33:51;102313.59;;;43.12;14.81
80401;BME280;69727;53.132;8.230;2023-06-24T12:36:21;102312.53;;;43.06;14.85
80401;BME280;69727;53.132;8.230;2023-06-24T12:38:46;102313.28;;;42.80;14.92
80401;BME280;69727;53.132;8.230;2023-06-24T12:41:12;102310.88;;;42.63;15.67
80401;BME280;69727;53.132;8.230;2023-06-24T12:43:37;102298.75;;;42.36;15.39
80401;BME280;69727;53.132;8.230;2023-06-24T12:46:03;102298.84;;;42.14;15.69
80401;BME280;69727;53.132;8.230;2023-06-24T12:48:28;102298.38;;;42.53;14.59
80401;BME280;69727;53.132;8.230;2023-06-24T12:50:53;102302.91;;;43.22;14.52
80401;BME280;69727;53.132;8.230;2023-06-24T12:53:20;102303.16;;;43.54;14.22
80401;BME280;69727;53.132;8.230;2023-06-24T12:55:46;102308.06;;;43.65;13.92
80401;BME280;69727;53.132;8.230;2023-06-24T12:58:13;102300.34;;;44.01;14.10
80401;BME280;69727;53.132;8.230;2023-06-24T13:00:39;102305.41;;;44.17;13.73
80401;BME280;69727;53.132;8.230;2023-06-24T13:03:04;102305.50;;;44.69;13.61
80401;BME280;69727;53.132;8.230;2023-06-24T13:05:30;102301.59;;;45.09;13.12
80401;BME280;69727;53.132;8.230;2023-06-24T13:07:55;102295.69;;;44.92;13.25
80401;BME280;69727;53.132;8.230;2023-06-24T13:10:20;102305.25;;;45.34;13.23
80401;BME280;69727;53.132;8.230;2023-06-24T13:12:46;102299.06;;;45.32;12.96